createdAt,value
2022-09-09T00:02:25.231Z,100405.60
2022-09-09T00:04:54.010Z,100407.10
2022-09-09T00:07:36.764Z,100404.81
2022-09-09T00:10:23.860Z,100402.48
2022-09-09T00:13:22.560Z,100401.15
2022-09-09T00:15:59.183Z,100405.23
2022-09-09T00:18:43.414Z,100405.73
2022-09-09T00:21:17.183Z,100407.69
2022-09-09T00:23:52.844Z,100408.27
2022-09-09T00:26:33.802Z,100408.81
2022-09-09T00:29:20.616Z,100408.81
2022-09-09T00:31:49.195Z,100410.52
2022-09-09T00:34:24.916Z,100406.65
2022-09-09T00:36:55.219Z,100407.95
2022-09-09T00:39:32.751Z,100410.83
2022-09-09T00:42:10.081Z,100409.19
2022-09-09T00:44:40.947Z,100412.23
2022-09-09T00:47:45.807Z,100412.23
2022-09-09T00:50:19.144Z,100409.98
2022-09-09T00:53:20.919Z,100408.16
2022-09-09T00:55:59.873Z,100410.86
2022-09-09T00:58:29.448Z,100410.40
2022-09-09T01:01:08.027Z,100409.96
2022-09-09T01:04:01.922Z,100406.97
2022-09-09T01:06:39.932Z,100410.73
2022-09-09T01:09:22.657Z,100413.05
2022-09-09T01:12:00.961Z,100419.36
2022-09-09T01:14:35.581Z,100421.69
2022-09-09T01:17:26.899Z,100425.39
2022-09-09T01:20:18.517Z,100424.50
2022-09-09T01:23:12.721Z,100428.36
2022-09-09T01:26:08.975Z,100426.86
2022-09-09T01:28:38.671Z,100428.65
2022-09-09T01:31:18.633Z,100430.59
2022-09-09T01:33:49.523Z,100437.63
2022-09-09T01:36:35.070Z,100442.85
2022-09-09T01:39:04.177Z,100450.25
2022-09-09T01:41:33.999Z,100447.00
2022-09-09T01:44:11.110Z,100449.90
2022-09-09T01:46:41.526Z,100451.48
2022-09-09T01:49:18.154Z,100446.13
2022-09-09T01:51:55.113Z,100449.56
2022-09-09T01:54:34.580Z,100448.58
2022-09-09T01:57:10.717Z,100449.96
2022-09-09T01:59:58.865Z,100451.61
2022-09-09T02:02:27.256Z,100452.39
2022-09-09T02:05:16.480Z,100455.39
2022-09-09T02:07:50.644Z,100457.81
2022-09-09T02:11:01.928Z,100459.00
2022-09-09T02:13:40.531Z,100460.00
2022-09-09T02:16:14.302Z,100452.02
2022-09-09T02:18:49.942Z,100456.44
2022-09-09T02:21:21.169Z,100461.88
2022-09-09T02:23:53.152Z,100465.76
2022-09-09T02:26:24.648Z,100467.59
2022-09-09T02:29:00.962Z,100470.13
2022-09-09T02:31:29.919Z,100473.16
2022-09-09T02:34:06.145Z,100471.77
2022-09-09T02:36:37.143Z,100472.56
2022-09-09T02:39:09.320Z,100468.84
2022-09-09T02:41:42.066Z,100468.80
2022-09-09T02:44:20.445Z,100469.45
2022-09-09T02:47:15.401Z,100467.36
2022-09-09T02:50:22.443Z,100469.81
2022-09-09T02:53:14.276Z,100475.05
2022-09-09T02:55:52.501Z,100475.77
2022-09-09T02:58:22.891Z,100483.42
2022-09-09T03:01:04.942Z,100484.42
2022-09-09T03:03:34.831Z,100485.63
2022-09-09T03:06:07.136Z,100487.64
2022-09-09T03:08:35.688Z,100487.08
2022-09-09T03:11:05.049Z,100490.48
2022-09-09T03:13:36.856Z,100490.17
2022-09-09T03:16:06.232Z,100490.20
2022-09-09T03:18:38.342Z,100493.76
2022-09-09T03:21:08.336Z,100491.39
2022-09-09T03:23:39.370Z,100491.90
2022-09-09T03:26:08.917Z,100495.21
2022-09-09T03:28:43.586Z,100501.40
2022-09-09T03:31:13.248Z,100500.11
2022-09-09T03:33:43.782Z,100502.77
2022-09-09T03:36:16.346Z,100505.17
2022-09-09T03:38:45.034Z,100504.71
2022-09-09T03:41:14.822Z,100507.21
2022-09-09T03:43:43.580Z,100504.61
2022-09-09T03:46:12.616Z,100509.04
2022-09-09T03:48:42.208Z,100508.15
2022-09-09T03:51:12.043Z,100511.46
2022-09-09T03:53:41.189Z,100512.83
2022-09-09T03:56:10.827Z,100509.77
2022-09-09T03:58:39.491Z,100513.74
2022-09-09T04:01:15.778Z,100514.68
2022-09-09T04:03:46.661Z,100518.18
2022-09-09T04:06:16.536Z,100522.95
2022-09-09T04:08:49.765Z,100519.74
2022-09-09T04:11:19.571Z,100524.46
2022-09-09T04:13:49.084Z,100526.12
2022-09-09T04:16:18.084Z,100524.67
2022-09-09T04:18:47.098Z,100528.69
2022-09-09T04:21:17.610Z,100526.30
2022-09-09T04:23:46.257Z,100528.39
2022-09-09T04:26:14.992Z,100531.16
2022-09-09T04:28:46.441Z,100530.49
2022-09-09T04:31:24.118Z,100529.82
2022-09-09T04:33:55.341Z,100527.38
2022-09-09T04:36:24.378Z,100530.73
2022-09-09T04:38:56.116Z,100533.36
2022-09-09T04:41:24.726Z,100534.31
2022-09-09T04:43:54.768Z,100534.55
2022-09-09T04:46:25.012Z,100535.09
2022-09-09T04:48:53.875Z,100541.96
2022-09-09T04:51:23.252Z,100543.61
2022-09-09T04:53:52.544Z,100544.56
2022-09-09T04:56:21.340Z,100548.33
2022-09-09T04:58:53.708Z,100550.27
2022-09-09T05:01:25.986Z,100549.52
2022-09-09T05:03:57.495Z,100552.39
2022-09-09T05:06:26.537Z,100552.09
2022-09-09T05:08:59.786Z,100552.77
2022-09-09T05:11:33.574Z,100556.55
2022-09-09T05:14:13.833Z,100553.17
2022-09-09T05:16:44.207Z,100561.22
2022-09-09T05:19:13.912Z,100561.87
2022-09-09T05:21:53.175Z,100562.75
2022-09-09T05:24:26.275Z,100560.94
2022-09-09T05:26:59.856Z,100560.27
2022-09-09T05:29:29.040Z,100560.39
2022-09-09T05:31:58.718Z,100561.03
2022-09-09T05:34:27.135Z,100564.67
2022-09-09T05:36:56.293Z,100565.33
2022-09-09T05:39:25.536Z,100567.36
2022-09-09T05:41:53.956Z,100568.50
2022-09-09T05:44:24.978Z,100566.13
2022-09-09T05:46:53.379Z,100566.18
2022-09-09T05:49:22.744Z,100567.34
2022-09-09T05:51:52.477Z,100573.64
2022-09-09T05:54:22.586Z,100577.77
2022-09-09T05:56:55.208Z,100571.74
2022-09-09T05:59:25.327Z,100572.89
2022-09-09T06:01:55.768Z,100572.20
2022-09-09T06:04:37.508Z,100569.31
2022-09-09T06:07:07.224Z,100570.82
2022-09-09T06:09:36.385Z,100568.14
2022-09-09T06:12:05.171Z,100567.95
2022-09-09T06:14:36.455Z,100569.12
2022-09-09T06:17:06.817Z,100568.70
2022-09-09T06:19:35.147Z,100575.67
2022-09-09T06:22:03.697Z,100573.31
2022-09-09T06:24:34.261Z,100570.90
2022-09-09T06:27:04.126Z,100571.73
2022-09-09T06:29:36.425Z,100569.77
2022-09-09T06:32:05.200Z,100574.42
2022-09-09T06:34:33.967Z,100580.16
2022-09-09T06:37:02.456Z,100577.75
2022-09-09T06:39:44.975Z,100572.46
2022-09-09T06:42:13.393Z,100573.21
2022-09-09T06:45:00.694Z,100573.75
2022-09-09T06:47:36.057Z,100574.31
2022-09-09T06:50:07.071Z,100572.14
2022-09-09T06:52:36.465Z,100572.02
2022-09-09T06:55:07.066Z,100576.27
2022-09-09T06:57:37.687Z,100575.56
2022-09-09T07:00:15.775Z,100575.67
2022-09-09T07:02:46.073Z,100574.66
2022-09-09T07:05:17.204Z,100575.61
2022-09-09T07:07:48.136Z,100577.73
2022-09-09T07:10:18.767Z,100576.58
2022-09-09T07:12:55.983Z,100574.31
2022-09-09T07:15:27.098Z,100575.60
2022-09-09T07:17:56.384Z,100575.54
2022-09-09T07:20:25.494Z,100573.45
2022-09-09T07:22:57.984Z,100577.02
2022-09-09T07:25:30.577Z,100577.98
2022-09-09T07:27:59.892Z,100573.80
2022-09-09T07:30:30.567Z,100576.20
2022-09-09T07:33:00.800Z,100579.06
2022-09-09T07:35:30.738Z,100579.78
2022-09-09T07:38:02.673Z,100580.23
2022-09-09T07:40:31.394Z,100581.63
2022-09-09T07:43:01.745Z,100580.34
2022-09-09T07:45:30.292Z,100582.02
2022-09-09T07:47:58.754Z,100587.72
2022-09-09T07:50:28.224Z,100589.17
2022-09-09T07:52:57.822Z,100590.61
2022-09-09T07:55:28.130Z,100594.75
2022-09-09T07:57:57.515Z,100596.30
2022-09-09T08:00:27.119Z,100599.05
2022-09-09T08:02:56.921Z,100595.86
2022-09-09T08:05:26.695Z,100597.95
2022-09-09T08:07:56.163Z,100598.88
2022-09-09T08:10:25.796Z,100597.96
2022-09-09T08:13:15.242Z,100600.95
2022-09-09T08:15:46.148Z,100597.62
2022-09-09T08:18:15.569Z,100601.95
2022-09-09T08:20:44.235Z,100603.26
2022-09-09T08:23:12.785Z,100606.83
2022-09-09T08:25:41.922Z,100610.81
2022-09-09T08:28:11.825Z,100614.04
2022-09-09T08:30:41.746Z,100606.64
2022-09-09T08:33:11.935Z,100611.37
2022-09-09T08:35:40.453Z,100615.52
2022-09-09T08:38:11.077Z,100610.44
2022-09-09T08:40:51.042Z,100609.64
2022-09-09T08:43:25.663Z,100612.52
2022-09-09T08:46:16.119Z,100615.05
2022-09-09T08:49:00.273Z,100614.88
2022-09-09T08:51:34.596Z,100613.28
2022-09-09T08:54:05.462Z,100617.21
2022-09-09T08:56:35.621Z,100620.73
2022-09-09T08:59:07.028Z,100619.80
2022-09-09T09:02:04.408Z,100615.49
2022-09-09T09:05:22.475Z,100614.56
2022-09-09T09:08:21.282Z,100614.88
2022-09-09T09:10:58.596Z,100621.94
2022-09-09T09:13:45.540Z,100621.35
2022-09-09T09:16:23.750Z,100621.22
2022-09-09T09:18:56.348Z,100617.38
2022-09-09T09:21:49.491Z,100617.23
2022-09-09T09:24:21.453Z,100623.52
2022-09-09T09:26:51.583Z,100625.75
2022-09-09T09:29:25.114Z,100621.59
2022-09-09T09:32:00.579Z,100625.91
2022-09-09T09:34:30.866Z,100629.86
2022-09-09T09:37:06.313Z,100630.54
2022-09-09T09:42:31.942Z,100629.55
2022-09-09T09:45:32.723Z,100626.75
2022-09-09T09:48:07.948Z,100621.15
2022-09-09T09:51:01.988Z,100629.13
2022-09-09T09:53:33.740Z,100627.76
2022-09-09T09:56:07.631Z,100629.05
2022-09-09T09:58:51.462Z,100631.39
2022-09-09T10:01:37.210Z,100629.97
2022-09-09T10:04:22.922Z,100633.36
2022-09-09T10:06:54.182Z,100631.88
2022-09-09T10:09:33.600Z,100637.24
2022-09-09T10:12:27.307Z,100636.44
2022-09-09T10:15:08.325Z,100637.82
2022-09-09T10:18:11.700Z,100639.88
2022-09-09T10:20:52.207Z,100642.02
2022-09-09T10:23:48.721Z,100641.13
2022-09-09T10:26:44.649Z,100638.41
2022-09-09T10:29:33.393Z,100640.08
2022-09-09T10:32:20.635Z,100641.95
2022-09-09T10:35:12.866Z,100649.69
2022-09-09T10:37:45.338Z,100648.67
2022-09-09T10:40:27.554Z,100653.16
2022-09-09T10:43:07.354Z,100653.77
2022-09-09T10:45:54.274Z,100652.19
2022-09-09T10:48:34.020Z,100647.77
2022-09-09T10:51:04.890Z,100648.65
2022-09-09T10:53:40.990Z,100644.36
2022-09-09T10:56:16.822Z,100638.54
2022-09-09T10:59:27.453Z,100641.90
2022-09-09T11:02:09.561Z,100644.61
2022-09-09T11:04:56.691Z,100644.19
2022-09-09T11:07:49.460Z,100644.05
2022-09-09T11:10:51.088Z,100645.67
2022-09-09T11:13:32.977Z,100648.14
2022-09-09T11:16:24.844Z,100646.42
2022-09-09T11:19:17.228Z,100647.73
2022-09-09T11:21:53.145Z,100650.70
2022-09-09T11:24:41.824Z,100652.21
2022-09-09T11:27:19.875Z,100650.05
2022-09-09T11:30:03.302Z,100652.77
2022-09-09T11:33:05.793Z,100654.08
2022-09-09T11:35:34.133Z,100649.43
2022-09-09T11:38:40.117Z,100648.73
2022-09-09T11:41:11.338Z,100649.82
2022-09-09T11:43:42.849Z,100653.68
2022-09-09T11:46:15.189Z,100648.98
2022-09-09T11:48:48.498Z,100648.45
2022-09-09T11:51:19.931Z,100645.59
2022-09-09T11:54:03.934Z,100640.77
2022-09-09T11:56:47.636Z,100639.07
2022-09-09T11:59:30.323Z,100640.52
2022-09-09T12:02:05.496Z,100641.30
2022-09-09T12:04:46.448Z,100638.41
2022-09-09T12:07:48.126Z,100640.06
2022-09-09T12:10:35.061Z,100637.80
2022-09-09T12:13:24.020Z,100635.95
2022-09-09T12:16:00.810Z,100633.06
2022-09-09T12:18:45.067Z,100623.35
2022-09-09T12:21:54.242Z,100623.65
2022-09-09T12:24:39.736Z,100619.48
2022-09-09T12:27:14.404Z,100613.45
2022-09-09T12:30:11.751Z,100616.80
2022-09-09T12:32:40.517Z,100615.86
2022-09-09T12:35:23.188Z,100610.88
2022-09-09T12:38:02.298Z,100615.42
2022-09-09T12:40:40.296Z,100615.71
2022-09-09T12:43:29.408Z,100618.06
2022-09-09T12:46:05.961Z,100614.27
2022-09-09T12:48:46.630Z,100609.08
2022-09-09T12:51:28.867Z,100606.05
2022-09-09T12:54:00.647Z,100601.23
2022-09-09T12:56:33.821Z,100604.61
2022-09-09T12:59:02.424Z,100608.73
2022-09-09T13:01:37.063Z,100606.14
2022-09-09T13:04:23.393Z,100606.34
2022-09-09T13:06:54.894Z,100608.73
2022-09-09T13:09:23.394Z,100611.05
2022-09-09T13:11:59.379Z,100611.34
2022-09-09T13:14:39.656Z,100611.14
2022-09-09T13:17:20.188Z,100610.12
2022-09-09T13:19:58.736Z,100611.98
2022-09-09T13:22:28.707Z,100611.67
2022-09-09T13:25:13.174Z,100605.63
2022-09-09T13:27:54.630Z,100608.64
2022-09-09T13:30:43.360Z,100608.30
2022-09-09T13:33:16.984Z,100611.39
2022-09-09T13:35:52.664Z,100603.89
2022-09-09T13:38:27.011Z,100603.90
2022-09-09T13:41:06.877Z,100609.50
2022-09-09T13:43:44.467Z,100607.39
2022-09-09T13:46:37.850Z,100609.37
2022-09-09T13:49:12.516Z,100610.20
2022-09-09T13:51:50.113Z,100601.84
2022-09-09T13:54:21.557Z,100602.84
2022-09-09T13:56:52.329Z,100597.64
2022-09-09T13:59:42.448Z,100590.20
2022-09-09T14:02:17.984Z,100590.17
2022-09-09T14:04:47.967Z,100582.44
2022-09-09T14:07:19.143Z,100581.73
2022-09-09T14:09:51.119Z,100581.29
2022-09-09T14:12:21.365Z,100579.44
2022-09-09T14:14:52.246Z,100577.19
2022-09-09T14:17:20.684Z,100581.70
2022-09-09T14:19:51.280Z,100581.41
2022-09-09T14:22:19.895Z,100583.89
2022-09-09T14:24:50.367Z,100580.55
2022-09-09T14:27:20.987Z,100579.75
2022-09-09T14:29:49.350Z,100582.23
2022-09-09T14:32:17.737Z,100589.05
2022-09-09T14:34:46.213Z,100586.31
2022-09-09T14:37:14.657Z,100588.23
2022-09-09T14:39:45.421Z,100586.05
2022-09-09T14:42:15.715Z,100584.66
2022-09-09T14:44:44.193Z,100584.09
2022-09-09T14:47:13.745Z,100583.91
2022-09-09T14:49:46.529Z,100583.11
2022-09-09T14:52:15.621Z,100582.88
2022-09-09T14:54:44.237Z,100582.43
2022-09-09T14:57:14.276Z,100579.29
2022-09-09T14:59:43.940Z,100576.37
2022-09-09T15:02:15.688Z,100576.88
2022-09-09T15:04:46.651Z,100579.88
2022-09-09T15:07:15.015Z,100579.15
2022-09-09T15:09:43.533Z,100572.98
2022-09-09T15:12:11.884Z,100571.05
2022-09-09T15:14:40.389Z,100563.40
2022-09-09T15:17:08.636Z,100556.75
2022-09-09T15:19:38.955Z,100553.96
2022-09-09T15:22:08.796Z,100555.73
2022-09-09T15:24:38.632Z,100557.15
2022-09-09T15:27:08.546Z,100557.48
2022-09-09T15:29:36.852Z,100565.44
2022-09-09T15:32:05.674Z,100568.55
2022-09-09T15:34:35.658Z,100567.00
2022-09-09T15:37:04.228Z,100561.39
2022-09-09T15:39:35.746Z,100556.95
2022-09-09T15:42:09.557Z,100562.41
2022-09-09T15:44:43.616Z,100563.40
2022-09-09T15:47:14.488Z,100567.48
2022-09-09T15:49:43.396Z,100566.07
2022-09-09T15:52:13.553Z,100564.54
2022-09-09T15:54:45.412Z,100563.17
2022-09-09T15:57:14.789Z,100564.09
2022-09-09T15:59:43.183Z,100565.29
2022-09-09T16:02:11.761Z,100571.16
2022-09-09T16:04:41.444Z,100568.16
2022-09-09T16:07:10.537Z,100572.88
2022-09-09T16:09:40.276Z,100570.94
2022-09-09T16:12:12.768Z,100575.44
2022-09-09T16:14:43.254Z,100578.80
2022-09-09T16:17:13.681Z,100577.37
2022-09-09T16:19:43.776Z,100577.52
2022-09-09T16:22:13.649Z,100576.28
2022-09-09T16:24:42.025Z,100568.86
2022-09-09T16:27:10.383Z,100570.39
2022-09-09T16:29:40.107Z,100567.89
2022-09-09T16:32:10.912Z,100570.63
2022-09-09T16:34:39.297Z,100570.16
2022-09-09T16:37:07.775Z,100574.05
2022-09-09T16:39:36.152Z,100571.26
2022-09-09T16:42:06.313Z,100571.40
2022-09-09T16:44:34.687Z,100576.27
2022-09-09T16:47:03.037Z,100571.11
2022-09-09T16:49:32.274Z,100569.89
2022-09-09T16:52:02.296Z,100569.80
2022-09-09T16:54:32.117Z,100567.06
2022-09-09T16:57:00.757Z,100571.20
2022-09-09T16:59:32.866Z,100573.29
2022-09-09T17:02:03.487Z,100578.81
2022-09-09T17:04:33.343Z,100579.44
2022-09-09T17:07:04.481Z,100577.63
2022-09-09T17:09:33.754Z,100574.42
2022-09-09T17:12:02.447Z,100574.95
2022-09-09T17:14:33.595Z,100576.61
2022-09-09T17:17:18.861Z,100577.63
2022-09-09T17:19:52.915Z,100578.90
2022-09-09T17:22:22.853Z,100580.92
2022-09-09T17:24:51.343Z,100586.05
2022-09-09T17:27:19.973Z,100586.25
2022-09-09T17:29:48.401Z,100589.37
2022-09-09T17:32:16.766Z,100593.18
2022-09-09T17:34:48.445Z,100591.16
2022-09-09T17:37:18.357Z,100595.45
2022-09-09T17:39:46.932Z,100599.86
2022-09-09T17:42:16.703Z,100603.58
2022-09-09T17:44:45.154Z,100611.63
2022-09-09T17:47:13.435Z,100615.04
2022-09-09T17:49:44.914Z,100621.65
2022-09-09T17:52:13.241Z,100623.84
2022-09-09T17:54:43.117Z,100625.33
2022-09-09T17:57:11.618Z,100624.64
2022-09-09T17:59:42.507Z,100627.17
2022-09-09T18:02:14.417Z,100627.31
2022-09-09T18:04:44.422Z,100629.09
2022-09-09T18:07:14.514Z,100629.89
2022-09-09T18:09:43.069Z,100628.98
2022-09-09T18:12:11.549Z,100630.25
2022-09-09T18:14:40.114Z,100630.13
2022-09-09T18:17:10.618Z,100626.77
2022-09-09T18:19:39.015Z,100625.11
2022-09-09T18:22:08.041Z,100624.10
2022-09-09T18:24:38.178Z,100619.52
2022-09-09T18:27:08.334Z,100617.89
2022-09-09T18:29:36.752Z,100619.95
2022-09-09T18:32:06.566Z,100617.84
2022-09-09T18:34:37.665Z,100618.50
2022-09-09T18:37:08.162Z,100617.96
2022-09-09T18:39:36.690Z,100616.73
2022-09-09T18:42:06.565Z,100614.19
2022-09-09T18:44:37.247Z,100612.20
2022-09-09T18:47:08.559Z,100611.20
2022-09-09T18:49:37.012Z,100613.59
2022-09-09T18:52:07.746Z,100613.51
2022-09-09T18:54:42.775Z,100615.20
2022-09-09T18:57:11.346Z,100613.67
2022-09-09T18:59:40.916Z,100616.52
2022-09-09T19:02:14.175Z,100611.36
2022-09-09T19:04:42.609Z,100613.27
2022-09-09T19:07:14.927Z,100613.65
2022-09-09T19:09:45.327Z,100612.52
2022-09-09T19:12:15.534Z,100615.36
2022-09-09T19:14:45.858Z,100623.46
2022-09-09T19:17:14.257Z,100621.62
2022-09-09T19:19:44.114Z,100622.88
2022-09-09T19:22:12.874Z,100623.63
2022-09-09T19:24:41.340Z,100622.91
2022-09-09T19:27:11.357Z,100617.62
2022-09-09T19:29:39.982Z,100621.20
2022-09-09T19:34:59.202Z,100622.90
2022-09-09T19:37:27.607Z,100622.27
2022-09-09T19:39:56.310Z,100630.23
2022-09-09T19:42:26.116Z,100632.14
2022-09-09T19:44:57.933Z,100635.80
2022-09-09T19:47:26.292Z,100634.80
2022-09-09T19:49:54.802Z,100637.84
2022-09-09T19:52:25.447Z,100636.41
2022-09-09T19:54:53.867Z,100644.65
2022-09-09T19:57:25.158Z,100647.34
2022-09-09T19:59:54.994Z,100652.42
2022-09-09T20:02:26.468Z,100647.94
2022-09-09T20:04:56.655Z,100647.10
2022-09-09T20:07:24.994Z,100644.09
2022-09-09T20:09:54.971Z,100643.20
2022-09-09T20:12:23.663Z,100640.70
2022-09-09T20:14:52.050Z,100638.89
2022-09-09T20:17:20.464Z,100646.27
2022-09-09T20:19:48.903Z,100649.71
2022-09-09T20:22:19.350Z,100649.67
2022-09-09T20:24:47.756Z,100649.13
2022-09-09T20:27:17.905Z,100651.45
2022-09-09T20:29:48.655Z,100650.32
2022-09-09T20:32:17.125Z,100648.08
2022-09-09T20:34:48.919Z,100652.79
2022-09-09T20:37:19.109Z,100645.87
2022-09-09T20:39:47.807Z,100651.61
2022-09-09T20:42:19.427Z,100654.08
2022-09-09T20:44:47.984Z,100654.24
2022-09-09T20:47:17.904Z,100652.84
2022-09-09T20:49:46.334Z,100646.00
2022-09-09T20:52:16.761Z,100643.64
2022-09-09T20:54:45.305Z,100636.81
2022-09-09T20:57:22.208Z,100632.17
2022-09-09T20:59:53.357Z,100626.14
2022-09-09T21:02:21.928Z,100620.42
2022-09-09T21:04:50.457Z,100622.77
2022-09-09T21:07:18.971Z,100622.65
2022-09-09T21:09:47.313Z,100619.79
2022-09-09T21:12:18.229Z,100617.51
2022-09-09T21:14:46.709Z,100616.59
2022-09-09T21:17:18.842Z,100618.64
2022-09-09T21:19:47.236Z,100621.01
2022-09-09T21:22:15.746Z,100620.48
2022-09-09T21:24:44.212Z,100620.10
2022-09-09T21:27:16.765Z,100620.23
2022-09-09T21:29:45.205Z,100616.56
2022-09-09T21:32:13.648Z,100615.89
2022-09-09T21:34:43.750Z,100611.94
2022-09-09T21:37:13.547Z,100614.06
2022-09-09T21:39:41.872Z,100614.70
2022-09-09T21:42:10.455Z,100615.59
2022-09-09T21:44:38.880Z,100618.86
2022-09-09T21:47:07.357Z,100627.48
2022-09-09T21:49:35.644Z,100627.48
2022-09-09T21:52:04.096Z,100624.15
2022-09-09T21:54:34.397Z,100621.98
2022-09-09T21:57:02.915Z,100618.45
2022-09-09T21:59:33.917Z,100619.80
2022-09-09T22:02:02.486Z,100625.15
2022-09-09T22:04:32.575Z,100623.44
2022-09-09T22:07:01.108Z,100625.46
2022-09-09T22:09:31.182Z,100622.25
2022-09-09T22:12:01.375Z,100625.33
2022-09-09T22:14:29.812Z,100623.02
2022-09-09T22:17:00.226Z,100626.39
2022-09-09T22:19:28.733Z,100623.27
2022-09-09T22:21:57.108Z,100626.35
2022-09-09T22:24:28.943Z,100627.89
2022-09-09T22:26:57.582Z,100623.35
2022-09-09T22:29:28.453Z,100626.73
2022-09-09T22:31:58.377Z,100627.30
2022-09-09T22:34:29.909Z,100627.92
2022-09-09T22:36:58.585Z,100624.96
2022-09-09T22:39:27.086Z,100625.94
2022-09-09T22:41:57.636Z,100632.60
2022-09-09T22:44:28.758Z,100642.90
2022-09-09T22:46:57.173Z,100650.34
2022-09-09T22:49:25.811Z,100649.13
2022-09-09T22:51:54.513Z,100639.41
2022-09-09T22:54:25.025Z,100641.54
2022-09-09T22:56:54.974Z,100634.25
2022-09-09T22:59:25.117Z,100628.85
2022-09-09T23:01:53.581Z,100630.39
2022-09-09T23:04:24.343Z,100630.71
2022-09-09T23:06:54.313Z,100631.47
2022-09-09T23:09:22.766Z,100625.86
2022-09-09T23:11:51.116Z,100635.69
2022-09-09T23:14:22.706Z,100639.86
2022-09-09T23:16:53.932Z,100627.19
2022-09-09T23:19:22.325Z,100626.31
2022-09-09T23:21:52.236Z,100627.81
2022-09-09T23:24:20.714Z,100630.42
2022-09-09T23:26:50.609Z,100623.55
2022-09-09T23:29:21.075Z,100615.18
2022-09-09T23:31:49.632Z,100615.55
2022-09-09T23:34:19.624Z,100611.17
2022-09-09T23:36:48.159Z,100607.53
2022-09-09T23:39:16.661Z,100603.15
2022-09-09T23:41:48.898Z,100605.12
2022-09-09T23:44:19.119Z,100607.51
2022-09-09T23:46:47.627Z,100603.68
2022-09-09T23:49:16.055Z,100607.67
2022-09-09T23:51:44.326Z,100610.80
2022-09-09T23:54:14.298Z,100611.73
2022-09-09T23:56:47.315Z,100611.91
2022-09-09T23:59:17.155Z,100612.04
